Time;durP1;ratioP1;P1;durP2;ratioP2;P2;SDS_P1;SDS_P2;PMS_P1;PMS_P2;Temp;Humidity;BMP_temperature;BMP_pressure;BME280_temperature;BME280_humidity;BME280_pressure;Samples;Min_cycle;Max_cycle;Signal;HPM_P1;HPM_P2
2023/01/19 00:01:18;;;;;;;31.45;11.07;;;;;;;1.70;100.00;99828.44;4928762;29;20035;-77
2023/01/19 00:03:44;;;;;;;18.67;11.45;;;;;;;1.73;100.00;99829.13;4928695;29;20039;-77
2023/01/19 00:06:09;;;;;;;29.50;13.80;;;;;;;1.81;100.00;99834.06;4925603;28;20544;-77
2023/01/19 00:08:36;;;;;;;26.52;13.13;;;;;;;1.84;100.00;99829.34;4959586;28;20104;-76
2023/01/19 00:11:01;;;;;;;22.98;12.23;;;;;;;1.81;100.00;99825.97;4923273;29;20039;-77
2023/01/19 00:13:27;;;;;;;28.73;13.60;;;;;;;1.76;100.00;99817.28;4926148;29;20031;-77
2023/01/19 00:15:53;;;;;;;25.13;12.98;;;;;;;1.82;100.00;99831.28;4969899;28;20039;-77
2023/01/19 00:18:18;;;;;;;27.45;13.60;;;;;;;1.81;100.00;99837.63;4957583;28;20035;-77
2023/01/19 00:20:45;;;;;;;26.67;13.30;;;;;;;1.77;100.00;99833.38;4961843;28;20035;-77
2023/01/19 00:23:11;;;;;;;25.05;13.32;;;;;;;1.82;100.00;99830.38;4950728;29;20109;-77
2023/01/19 00:25:41;;;;;;;22.98;12.43;;;;;;;1.74;100.00;99814.69;4940134;29;20113;-77
2023/01/19 00:28:17;;;;;;;22.73;12.55;;;;;;;1.84;100.00;99829.34;4920776;28;1089076;-77
2023/01/19 00:30:43;;;;;;;24.35;11.93;;;;;;;1.77;100.00;99829.78;4946268;28;20039;-77
2023/01/19 00:33:12;;;;;;;29.80;13.52;;;;;;;1.84;100.00;99834.75;4979327;28;20030;-76
2023/01/19 00:35:38;;;;;;;22.52;11.73;;;;;;;1.83;100.00;99830.31;4935094;29;20051;-77
2023/01/19 00:38:03;;;;;;;31.33;14.15;;;;;;;1.78;100.00;99827.00;4957974;28;20035;-78
2023/01/19 00:40:29;;;;;;;22.45;10.55;;;;;;;1.74;100.00;99833.56;4941325;29;20048;-78
2023/01/19 00:42:54;;;;;;;26.98;13.65;;;;;;;1.80;100.00;99838.59;4926260;28;20501;-77
2023/01/19 00:45:22;;;;;;;23.08;12.73;;;;;;;1.87;100.00;99849.00;4928242;29;20039;-78
2023/01/19 00:47:53;;;;;;;26.38;13.55;;;;;;;1.83;100.00;99849.19;4964758;28;20039;-77
2023/01/19 00:50:19;;;;;;;24.58;14.07;;;;;;;1.87;100.00;99844.50;4931661;29;20398;-78
2023/01/19 00:52:45;;;;;;;28.00;14.75;;;;;;;1.85;100.00;99849.09;4944656;29;20095;-77
2023/01/19 00:55:12;;;;;;;24.77;13.73;;;;;;;1.81;100.00;99836.75;4937942;29;20031;-78
2023/01/19 00:57:39;;;;;;;25.55;14.50;;;;;;;1.93;100.00;99852.22;4926725;29;20019;-77
2023/01/19 01:00:06;;;;;;;26.90;12.57;;;;;;;1.91;100.00;99847.88;4945152;29;20438;-77
2023/01/19 01:02:32;;;;;;;23.52;11.82;;;;;;;1.90;100.00;99846.13;4942919;29;20090;-77
2023/01/19 01:05:01;;;;;;;20.13;11.20;;;;;;;1.87;100.00;99844.50;4946840;29;20439;-77
2023/01/19 01:07:28;;;;;;;28.63;13.82;;;;;;;1.95;100.00;99850.31;4942825;29;20036;-77
2023/01/19 01:09:53;;;;;;;26.70;13.63;;;;;;;1.91;100.00;99846.03;4956726;29;20038;-77
2023/01/19 01:12:19;;;;;;;25.65;12.95;;;;;;;1.91;100.00;99840.66;4942090;29;20036;-77
2023/01/19 01:14:44;;;;;;;28.90;14.38;;;;;;;1.97;100.00;99842.13;4975213;28;20400;-77
2023/01/19 01:17:10;;;;;;;25.88;14.05;;;;;;;1.91;100.00;99851.44;4922800;29;20115;-76
2023/01/19 01:19:40;;;;;;;23.48;11.02;;;;;;;1.89;100.00;99836.31;4953683;29;20039;-78
2023/01/19 01:22:07;;;;;;;28.80;13.25;;;;;;;1.92;100.00;99837.00;4961141;28;20038;-78
2023/01/19 01:24:32;;;;;;;26.83;13.98;;;;;;;1.86;100.00;99828.41;4945127;28;20039;-79
2023/01/19 01:26:58;;;;;;;20.58;11.38;;;;;;;1.82;100.00;99830.38;4955868;28;20042;-76
2023/01/19 01:29:23;;;;;;;25.23;11.85;;;;;;;1.89;100.00;99834.47;4947978;29;20027;-76
2023/01/19 01:31:48;;;;;;;22.27;11.05;;;;;;;1.72;100.00;99824.69;4955441;28;20134;-76
2023/01/19 01:34:14;;;;;;;31.10;14.98;;;;;;;1.79;100.00;99842.25;4929859;29;20035;-78
2023/01/19 01:36:40;;;;;;;32.78;13.95;;;;;;;1.68;100.00;99823.13;4971571;28;20043;-77
2023/01/19 01:39:06;;;;;;;24.85;12.57;;;;;;;1.64;100.00;99830.53;4925644;29;20035;-77
2023/01/19 01:41:31;;;;;;;28.38;11.52;;;;;;;1.70;100.00;99836.53;4966157;28;20041;-76
2023/01/19 01:44:00;;;;;;;32.13;14.18;;;;;;;1.70;100.00;99833.84;4978066;28;20089;-77
2023/01/19 01:46:28;;;;;;;27.45;12.80;;;;;;;1.79;100.00;99838.69;4942213;28;20055;-77
2023/01/19 01:48:58;;;;;;;21.27;12.32;;;;;;;1.73;100.00;99842.59;4936878;29;20063;-77
2023/01/19 01:51:47;;;;;;;27.98;12.30;;;;;;;1.73;100.00;99839.91;4969098;28;20031;-77
2023/01/19 01:54:27;;;;;;;20.42;8.68;;;;;;;1.67;100.00;99834.00;4957281;28;20063;-77
2023/01/19 01:56:56;;;;;;;37.78;14.63;;;;;;;1.77;100.00;99846.00;4962078;28;20027;-77
2023/01/19 01:59:25;;;;;;;25.30;12.73;;;;;;;1.74;100.00;99841.66;4939747;28;20031;-77
2023/01/19 02:05:02;;;;;;;25.67;11.65;;;;;;;1.78;100.00;99834.25;4947840;29;20039;-76
2023/01/19 02:13:19;;;;;;;23.23;11.90;;;;;;;1.84;100.00;99840.16;4957339;28;20042;-76
2023/01/19 02:15:51;;;;;;;21.20;11.68;;;;;;;1.87;100.00;99839.09;4957408;28;20105;-77
2023/01/19 02:18:18;;;;;;;22.50;12.48;;;;;;;1.85;100.00;99832.91;4934993;29;20045;-77
2023/01/19 02:20:56;;;;;;;24.42;10.65;;;;;;;1.87;100.00;99854.41;4940218;29;20114;-77
2023/01/19 02:23:32;;;;;;;21.65;11.75;;;;;;;1.86;100.00;99848.16;4957837;28;20118;-78
2023/01/19 02:25:59;;;;;;;16.65;8.80;;;;;;;1.96;100.00;99856.56;4948046;28;20035;-78
2023/01/19 02:28:26;;;;;;;25.25;12.23;;;;;;;2.02;100.00;99865.16;4955881;28;20042;-77
2023/01/19 02:30:52;;;;;;;22.58;10.55;;;;;;;1.95;100.00;99863.81;4952491;29;20039;-77
2023/01/19 02:33:17;;;;;;;21.35;10.68;;;;;;;1.79;100.00;99860.28;4956814;28;20049;-77
2023/01/19 02:35:44;;;;;;;23.02;11.52;;;;;;;1.75;100.00;99853.31;4955524;28;20043;-77
2023/01/19 02:38:12;;;;;;;23.08;11.18;;;;;;;1.65;100.00;99837.66;4921181;29;20043;-77
2023/01/19 02:40:41;;;;;;;24.80;11.45;;;;;;;1.64;100.00;99853.94;4939346;28;20053;-77
2023/01/19 02:43:08;;;;;;;23.85;11.68;;;;;;;1.54;100.00;99867.13;4952592;28;20032;-77
2023/01/19 02:45:36;;;;;;;22.77;10.98;;;;;;;1.40;100.00;99849.00;4953139;28;20074;-77
2023/01/19 02:48:03;;;;;;;23.80;11.32;;;;;;;1.47;100.00;99868.41;4956402;28;20525;-77
2023/01/19 02:50:36;;;;;;;23.15;8.82;;;;;;;1.31;100.00;99864.84;4965076;28;20046;-77
2023/01/19 02:53:28;;;;;;;30.45;12.80;;;;;;;1.20;100.00;99862.78;4956349;28;20038;-77
2023/01/19 02:56:23;;;;;;;26.00;10.80;;;;;;;1.16;100.00;99864.75;4953456;28;20027;-77
2023/01/19 02:59:10;;;;;;;28.38;13.60;;;;;;;1.12;100.00;99863.19;4959927;28;20035;-77
2023/01/19 03:01:44;;;;;;;23.50;12.82;;;;;;;1.18;100.00;99860.16;4971546;28;20024;-78
2023/01/19 03:04:10;;;;;;;23.10;11.07;;;;;;;1.12;100.00;99862.34;4936724;29;20082;-77
2023/01/19 03:07:09;;;;;;;23.60;12.30;;;;;;;1.04;100.00;99854.69;4968226;28;20071;-77
2023/01/19 03:09:47;;;;;;;21.98;10.32;;;;;;;1.12;100.00;99871.28;4923057;29;20040;-77
2023/01/19 03:12:43;;;;;;;22.13;10.75;;;;;;;1.11;100.00;99869.53;4926145;29;20039;-77
2023/01/19 03:15:15;;;;;;;29.23;12.77;;;;;;;1.09;100.00;99857.97;4951533;28;20035;-77
2023/01/19 03:17:44;;;;;;;23.88;9.73;;;;;;;1.03;100.00;99859.22;4950438;28;20050;-77
2023/01/19 03:20:12;;;;;;;23.23;12.48;;;;;;;0.96;100.00;99862.31;4940960;29;20043;-77
2023/01/19 03:22:38;;;;;;;29.83;12.07;;;;;;;0.93;100.00;99862.47;4956009;28;20031;-77
2023/01/19 03:25:05;;;;;;;23.85;11.48;;;;;;;0.90;100.00;99872.47;4941387;29;20038;-77
2023/01/19 03:27:39;;;;;;;26.13;12.48;;;;;;;0.93;100.00;99875.97;4966243;28;20507;-78
2023/01/19 03:30:13;;;;;;;33.33;13.80;;;;;;;0.89;100.00;99872.56;4963068;28;20391;-78
2023/01/19 03:32:48;;;;;;;26.35;11.85;;;;;;;0.77;100.00;99865.16;4923214;29;20039;-78
2023/01/19 03:35:17;;;;;;;30.27;14.43;;;;;;;0.86;100.00;99873.59;4949845;28;20038;-78
2023/01/19 03:37:45;;;;;;;30.25;13.73;;;;;;;0.87;100.00;99879.84;4924306;29;20123;-78
2023/01/19 03:40:12;;;;;;;41.42;15.70;;;;;;;0.86;100.00;99878.97;4940494;29;20027;-79
2023/01/19 03:42:39;;;;;;;31.67;13.43;;;;;;;0.89;100.00;99886.91;4941632;28;20082;-78
2023/01/19 03:45:06;;;;;;;29.15;14.60;;;;;;;0.86;100.00;99881.69;4952958;28;20395;-78
2023/01/19 03:47:32;;;;;;;32.40;15.35;;;;;;;0.97;100.00;99890.97;4944868;29;20538;-78
2023/01/19 03:50:03;;;;;;;32.60;15.55;;;;;;;0.95;100.00;99890.22;4944763;29;20507;-78
2023/01/19 03:52:32;;;;;;;23.52;13.40;;;;;;;1.00;100.00;99888.13;4951721;29;20086;-79
2023/01/19 03:55:00;;;;;;;29.30;14.63;;;;;;;0.89;100.00;99905.75;4934918;28;20114;-79
2023/01/19 03:57:25;;;;;;;34.10;15.57;;;;;;;0.83;100.00;99899.84;4952765;28;20423;-78
2023/01/19 03:59:52;;;;;;;39.63;17.00;;;;;;;0.88;100.00;99911.25;4962381;28;20039;-79
2023/01/19 04:02:18;;;;;;;37.90;17.75;;;;;;;0.79;100.00;99920.69;4952973;29;20042;-79
2023/01/19 04:04:43;;;;;;;26.70;14.70;;;;;;;0.81;100.00;99923.31;4942117;28;20118;-78
2023/01/19 04:07:09;;;;;;;35.50;18.38;;;;;;;0.84;100.00;99926.72;4955088;29;20070;-78
2023/01/19 04:09:35;;;;;;;36.10;17.25;;;;;;;0.84;100.00;99929.41;4962208;28;20041;-78
2023/01/19 04:12:00;;;;;;;37.72;18.48;;;;;;;0.75;100.00;99927.19;4923860;29;20091;-78
2023/01/19 04:14:26;;;;;;;26.45;15.77;;;;;;;0.79;100.00;99928.78;4946691;29;20039;-78
2023/01/19 04:16:52;;;;;;;33.22;16.33;;;;;;;0.79;100.00;99936.88;4967104;28;20039;-78
2023/01/19 04:19:17;;;;;;;21.42;11.50;;;;;;;0.66;100.00;99933.94;4942080;29;20031;-78
2023/01/19 04:21:43;;;;;;;35.15;15.25;;;;;;;0.70;100.00;99924.72;4952849;29;20474;-78
2023/01/19 04:24:09;;;;;;;25.67;13.02;;;;;;;0.67;100.00;99924.03;4926725;29;20485;-78
2023/01/19 04:26:35;;;;;;;20.85;12.63;;;;;;;0.71;100.00;99931.00;4950640;28;20027;-77
2023/01/19 04:29:01;;;;;;;22.65;12.45;;;;;;;0.64;100.00;99927.78;4959913;28;20082;-77
2023/01/19 04:31:26;;;;;;;26.00;14.30;;;;;;;0.69;100.00;99936.47;4920159;29;21263;-78
2023/01/19 04:33:51;;;;;;;25.33;14.40;;;;;;;0.78;100.00;99942.34;4921702;29;20036;-78
2023/01/19 04:36:17;;;;;;;20.20;12.32;;;;;;;0.68;100.00;99945.50;4921018;29;20048;-78
2023/01/19 04:38:43;;;;;;;21.50;13.10;;;;;;;0.85;100.00;99952.72;4922517;29;20036;-77
2023/01/19 04:41:08;;;;;;;20.63;13.00;;;;;;;0.74;100.00;99944.31;4939013;29;20040;-78
2023/01/19 04:43:34;;;;;;;16.77;10.52;;;;;;;0.80;100.00;99953.88;4922632;29;20053;-77
2023/01/19 04:45:59;;;;;;;17.27;10.07;;;;;;;0.80;100.00;99956.59;4929145;29;20144;-78
2023/01/19 04:48:25;;;;;;;20.92;11.80;;;;;;;0.72;100.00;99940.81;4914909;29;20100;-78
2023/01/19 04:50:51;;;;;;;18.95;10.93;;;;;;;0.75;100.00;99954.13;4940954;29;20094;-78
2023/01/19 04:53:17;;;;;;;16.80;10.20;;;;;;;0.70;100.00;99945.44;4924944;29;20471;-78
2023/01/19 04:55:43;;;;;;;15.40;9.65;;;;;;;0.74;100.00;99960.50;4922467;29;20048;-78
2023/01/19 04:58:08;;;;;;;14.40;9.25;;;;;;;0.74;100.00;99957.78;4923104;29;20043;-78
2023/01/19 05:00:34;;;;;;;13.88;8.82;;;;;;;0.69;100.00;99966.13;4935452;29;20066;-77
2023/01/19 05:03:00;;;;;;;10.90;7.53;;;;;;;0.75;100.00;99964.03;4936315;29;20502;-78
2023/01/19 05:05:26;;;;;;;14.55;9.40;;;;;;;0.63;100.00;99960.19;4951298;29;20039;-78
2023/01/19 05:07:51;;;;;;;13.15;8.50;;;;;;;0.54;100.00;99957.03;4928982;29;20042;-78
2023/01/19 05:10:17;;;;;;;13.00;7.93;;;;;;;0.62;100.00;99963.81;4923499;29;20040;-78
2023/01/19 05:12:42;;;;;;;13.30;7.20;;;;;;;0.57;100.00;99966.75;4926876;29;20065;-77
2023/01/19 05:15:08;;;;;;;6.38;4.70;;;;;;;0.52;100.00;99948.13;4940854;29;20039;-77
2023/01/19 05:17:35;;;;;;;9.05;6.45;;;;;;;0.52;100.00;99942.75;4924620;29;20549;-77
2023/01/19 05:20:01;;;;;;;10.07;5.53;;;;;;;0.49;100.00;99918.69;4937511;29;20082;-78
2023/01/19 05:22:26;;;;;;;9.48;6.68;;;;;;;0.57;100.00;99923.66;4937349;29;20427;-77
2023/01/19 05:24:51;;;;;;;9.18;5.47;;;;;;;0.53;100.00;99909.47;4935872;29;20043;-78
2023/01/19 05:27:17;;;;;;;11.13;7.32;;;;;;;0.61;100.00;99911.78;4939698;28;20051;-78
2023/01/19 05:29:42;;;;;;;11.13;7.90;;;;;;;0.62;100.00;99910.81;4950376;28;20135;-77
2023/01/19 05:32:08;;;;;;;13.15;8.60;;;;;;;0.61;100.00;99922.56;4984485;28;20073;-78
2023/01/19 05:34:33;;;;;;;9.77;7.15;;;;;;;0.64;100.00;99918.81;4949106;29;20046;-78
2023/01/19 05:36:58;;;;;;;14.95;9.15;;;;;;;0.68;100.00;99917.72;4956704;28;20046;-77
2023/01/19 05:39:25;;;;;;;12.35;7.53;;;;;;;0.64;100.00;99913.41;4950677;28;20042;-79
2023/01/19 05:41:51;;;;;;;15.63;9.23;;;;;;;0.71;100.00;99925.63;4939403;29;20387;-77
2023/01/19 05:44:16;;;;;;;17.30;10.50;;;;;;;0.77;100.00;99933.38;4954513;28;20038;-77
2023/01/19 05:46:42;;;;;;;11.75;7.40;;;;;;;0.69;100.00;99935.63;4951364;28;20051;-79
2023/01/19 05:49:07;;;;;;;16.08;9.43;;;;;;;0.71;100.00;99929.19;4960199;28;20050;-77
2023/01/19 05:51:36;;;;;;;17.58;9.88;;;;;;;0.77;100.00;99936.09;4940804;28;20137;-79
2023/01/19 05:54:03;;;;;;;20.83;11.75;;;;;;;0.90;100.00;99944.34;4943074;28;20122;-79
2023/01/19 05:56:29;;;;;;;17.92;11.50;;;;;;;0.84;100.00;99940.19;4951628;28;20031;-78
2023/01/19 05:58:54;;;;;;;18.85;11.68;;;;;;;0.88;100.00;99947.13;4949049;28;20383;-76
2023/01/19 06:01:20;;;;;;;24.15;12.52;;;;;;;0.93;100.00;99948.72;4937694;28;20046;-77
2023/01/19 06:03:46;;;;;;;17.15;10.77;;;;;;;0.94;100.00;99951.34;4958493;28;20054;-77
2023/01/19 06:06:13;;;;;;;20.92;10.60;;;;;;;0.87;100.00;99945.41;4923829;29;20435;-77
2023/01/19 06:08:39;;;;;;;17.40;10.32;;;;;;;0.84;100.00;99952.78;4958458;28;20118;-77
2023/01/19 06:11:05;;;;;;;19.50;10.18;;;;;;;0.95;100.00;99965.66;4934539;28;20114;-77
2023/01/19 06:13:31;;;;;;;20.80;9.82;;;;;;;1.02;100.00;99964.41;4967962;28;20049;-77
2023/01/19 06:15:58;;;;;;;17.25;9.30;;;;;;;0.96;100.00;99962.03;4953705;29;20035;-77
2023/01/19 06:18:24;;;;;;;17.02;9.15;;;;;;;0.99;100.00;99978.03;4943961;28;20038;-77
2023/01/19 06:20:51;;;;;;;10.23;6.88;;;;;;;0.86;100.00;99964.34;4923058;28;20434;-77
2023/01/19 06:23:16;;;;;;;15.88;8.27;;;;;;;0.87;100.00;99977.75;4940008;29;20122;-77
2023/01/19 06:25:42;;;;;;;20.20;10.65;;;;;;;0.86;100.00;99972.44;4941372;28;22286;-77
2023/01/19 06:28:08;;;;;;;16.95;9.70;;;;;;;0.84;100.00;99974.34;4941340;28;20105;-76
2023/01/19 06:30:33;;;;;;;15.27;8.93;;;;;;;0.78;100.00;99971.97;4954321;28;20047;-77
2023/01/19 06:32:58;;;;;;;21.92;11.18;;;;;;;0.79;100.00;99971.88;4924771;28;20035;-77
2023/01/19 06:35:24;;;;;;;19.17;10.13;;;;;;;0.89;100.00;99983.91;4941967;28;20077;-77
2023/01/19 06:37:49;;;;;;;18.58;9.70;;;;;;;0.86;100.00;99984.06;4940187;29;20077;-76
2023/01/19 06:40:15;;;;;;;12.73;6.95;;;;;;;0.84;100.00;99985.97;4938927;29;20070;-77
2023/01/19 06:42:41;;;;;;;23.88;11.32;;;;;;;0.88;100.00;99994.78;4920608;29;20047;-77
2023/01/19 06:45:08;;;;;;;15.93;8.30;;;;;;;0.82;100.00;99979.81;4937894;28;20038;-77
2023/01/19 06:47:34;;;;;;;17.85;8.95;;;;;;;0.87;100.00;100001.09;4937448;28;20043;-76
2023/01/19 06:50:01;;;;;;;12.73;6.95;;;;;;;0.86;100.00;100012.84;4968502;28;20086;-77
2023/01/19 06:52:27;;;;;;;17.30;8.35;;;;;;;0.86;100.00;100008.31;4955445;28;20114;-76
2023/01/19 06:54:52;;;;;;;13.15;7.10;;;;;;;0.90;100.00;100023.38;4954349;28;20466;-77
2023/01/19 06:57:17;;;;;;;13.35;7.82;;;;;;;0.91;100.00;100018.88;4954585;28;20028;-77
2023/01/19 06:59:43;;;;;;;12.90;7.43;;;;;;;0.89;100.00;100032.41;4956970;29;20098;-77
2023/01/19 07:02:10;;;;;;;18.80;10.35;;;;;;;0.91;100.00;100022.41;4970528;28;20039;-77
2023/01/19 07:04:35;;;;;;;19.67;10.65;;;;;;;0.91;100.00;100035.88;4938185;28;20031;-77
2023/01/19 07:07:01;;;;;;;26.20;13.23;;;;;;;0.92;100.00;100034.09;4944254;28;20042;-78
2023/01/19 07:09:26;;;;;;;21.75;11.95;;;;;;;0.90;100.00;100034.16;4948287;28;20569;-77
2023/01/19 07:11:53;;;;;;;25.63;14.93;;;;;;;0.96;100.00;100040.19;4965664;28;20039;-77
2023/01/19 07:14:18;;;;;;;29.92;15.48;;;;;;;0.97;100.00;100032.03;4959742;28;20031;-77
2023/01/19 07:16:43;;;;;;;19.25;12.13;;;;;;;0.97;100.00;100052.69;4946724;29;20042;-77
2023/01/19 07:19:09;;;;;;;25.90;15.57;;;;;;;0.92;100.00;100044.88;4958170;28;20043;-77
2023/01/19 07:21:35;;;;;;;24.02;14.93;;;;;;;0.96;100.00;100045.56;4939144;28;20117;-77
2023/01/19 07:24:01;;;;;;;32.40;18.30;;;;;;;0.94;100.00;100045.66;4953383;28;20035;-76
2023/01/19 07:26:27;;;;;;;34.88;19.48;;;;;;;0.97;100.00;100056.28;4938582;29;20121;-76
2023/01/19 07:28:53;;;;;;;36.70;19.80;;;;;;;0.90;100.00;100041.34;4935829;28;20514;-76
2023/01/19 07:31:18;;;;;;;35.15;20.92;;;;;;;0.98;100.00;100070.63;4939943;28;20677;-76
2023/01/19 07:33:45;;;;;;;38.97;21.70;;;;;;;1.04;100.00;100073.00;4968478;28;20533;-76
2023/01/19 07:36:10;;;;;;;35.22;20.15;;;;;;;1.07;100.00;100079.09;4963597;28;20034;-76
2023/01/19 07:38:36;;;;;;;47.45;24.10;;;;;;;1.03;100.00;100066.75;4958812;28;20037;-77
2023/01/19 07:41:04;;;;;;;40.75;22.35;;;;;;;1.05;100.00;100085.50;4950070;28;20117;-77
2023/01/19 07:43:30;;;;;;;48.13;21.73;;;;;;;1.01;100.00;100075.84;4971383;28;20034;-76
2023/01/19 07:46:00;;;;;;;61.05;23.27;;;;;;;1.03;100.00;100076.63;4939399;28;20031;-76
2023/01/19 07:48:26;;;;;;;39.85;20.35;;;;;;;0.98;100.00;100087.66;4977833;28;20038;-76
2023/01/19 07:50:52;;;;;;;36.72;18.85;;;;;;;0.99;100.00;100091.25;4974860;28;20062;-76
2023/01/19 07:53:18;;;;;;;43.08;20.80;;;;;;;0.97;100.00;100087.72;4945585;28;20085;-77
2023/01/19 07:55:43;;;;;;;39.88;22.35;;;;;;;0.99;100.00;100088.53;4974939;28;20054;-76
2023/01/19 07:58:09;;;;;;;40.35;21.73;;;;;;;1.03;100.00;100095.50;4938720;29;20043;-78
2023/01/19 08:00:36;;;;;;;35.83;20.73;;;;;;;0.93;100.00;100099.63;4939401;28;20063;-78
2023/01/19 08:03:03;;;;;;;35.45;18.48;;;;;;;1.02;100.00;100101.84;4972023;28;20051;-77
2023/01/19 08:05:30;;;;;;;34.80;17.45;;;;;;;1.01;100.00;100102.81;4958509;29;20035;-77
2023/01/19 08:07:57;;;;;;;41.05;20.75;;;;;;;1.00;100.00;100095.66;4949396;28;20031;-79
2023/01/19 08:10:25;;;;;;;40.55;19.95;;;;;;;1.15;100.00;100115.53;4961606;28;20516;-77
2023/01/19 08:13:32;;;;;;;39.03;19.92;;;;;;;1.13;100.00;100125.53;4943735;28;20050;-76
2023/01/19 08:15:57;;;;;;;44.55;22.50;;;;;;;1.13;100.00;100126.41;4949146;29;20039;-79
2023/01/19 08:18:22;;;;;;;46.28;21.98;;;;;;;1.08;100.00;100126.69;4940382;29;20089;-78
2023/01/19 08:20:48;;;;;;;55.85;20.38;;;;;;;1.09;100.00;100124.84;4964181;28;20051;-77
2023/01/19 08:23:13;;;;;;;46.65;24.00;;;;;;;1.09;100.00;100133.78;4942360;28;20081;-76
2023/01/19 08:25:43;;;;;;;56.92;24.10;;;;;;;1.14;100.00;100135.38;4932418;28;20035;-77
2023/01/19 08:28:12;;;;;;;55.40;22.70;;;;;;;1.16;100.00;100137.03;4941711;28;20052;-78
2023/01/19 08:30:38;;;;;;;46.67;20.55;;;;;;;1.12;100.00;100140.00;4958901;28;20039;-77
2023/01/19 08:33:06;;;;;;;57.72;27.42;;;;;;;1.23;100.00;100143.88;4958283;28;20390;-77
2023/01/19 08:35:46;;;;;;;58.83;26.58;;;;;;;1.23;100.00;100149.28;4955901;28;20067;-77
2023/01/19 08:38:11;;;;;;;75.18;25.08;;;;;;;1.10;100.00;100140.06;4943778;29;20066;-77
2023/01/19 08:40:38;;;;;;;57.97;26.10;;;;;;;1.15;100.00;100155.97;4971564;28;20097;-76
2023/01/19 08:43:15;;;;;;;52.80;22.98;;;;;;;1.17;100.00;100159.50;4925373;29;20044;-77
2023/01/19 08:45:47;;;;;;;68.93;27.45;;;;;;;1.24;100.00;100169.88;4949363;28;20040;-77
2023/01/19 08:48:14;;;;;;;63.07;27.47;;;;;;;1.28;100.00;100176.00;4978609;28;20042;-77
2023/01/19 08:50:40;;;;;;;57.08;26.25;;;;;;;1.21;100.00;100172.72;4974594;28;20316;-77
2023/01/19 08:53:06;;;;;;;69.85;26.00;;;;;;;1.26;100.00;100183.28;4937527;28;20035;-78
2023/01/19 08:55:35;;;;;;;65.13;27.73;;;;;;;1.21;100.00;100177.25;4984436;28;20034;-78
2023/01/19 08:58:02;;;;;;;67.97;26.90;;;;;;;1.20;100.00;100187.16;4972608;28;20046;-77
2023/01/19 09:00:30;;;;;;;61.97;25.13;;;;;;;1.10;100.00;100164.34;4983316;28;20064;-77
2023/01/19 09:02:56;;;;;;;76.00;29.20;;;;;;;1.32;100.00;100190.19;4940952;28;20031;-77
2023/01/19 09:05:22;;;;;;;56.35;24.45;;;;;;;1.31;100.00;100197.38;4947647;29;20521;-77
2023/01/19 09:07:48;;;;;;;67.40;28.20;;;;;;;1.39;100.00;100202.38;4968940;28;20055;-78
2023/01/19 09:10:15;;;;;;;73.72;27.90;;;;;;;1.46;100.00;100203.84;4968065;29;20086;-78
2023/01/19 09:12:40;;;;;;;68.90;27.50;;;;;;;1.46;100.00;100203.84;4985261;28;20510;-78
2023/01/19 09:15:09;;;;;;;76.55;28.92;;;;;;;1.53;100.00;100204.38;4948768;28;20153;-77
2023/01/19 09:17:35;;;;;;;78.00;28.67;;;;;;;1.67;100.00;100214.44;4960888;28;20473;-77
2023/01/19 09:20:00;;;;;;;80.57;27.92;;;;;;;1.70;100.00;100222.38;4944107;28;20053;-77
2023/01/19 09:22:26;;;;;;;62.60;26.92;;;;;;;1.65;100.00;100220.78;4975778;28;20046;-77
2023/01/19 09:24:51;;;;;;;58.30;25.17;;;;;;;1.50;100.00;100228.81;4961438;28;20038;-77
2023/01/19 09:27:17;;;;;;;70.00;25.67;;;;;;;1.55;100.00;100233.00;4969498;28;20430;-77
2023/01/19 09:29:51;;;;;;;58.70;25.90;;;;;;;1.57;100.00;100241.88;4968232;28;20039;-77
2023/01/19 09:32:17;;;;;;;68.28;26.33;;;;;;;1.55;100.00;100232.16;4942329;29;20043;-77
2023/01/19 09:34:42;;;;;;;59.88;24.90;;;;;;;1.52;100.00;100237.69;4946878;28;20579;-77
2023/01/19 09:37:08;;;;;;;67.25;26.77;;;;;;;1.52;100.00;100235.88;4937297;29;20047;-77
2023/01/19 09:39:33;;;;;;;76.90;26.13;;;;;;;1.58;100.00;100246.34;4922480;29;20356;-77
2023/01/19 09:42:29;;;;;;;70.13;26.13;;;;;;;1.56;100.00;100234.78;4959652;28;20146;-79
2023/01/19 09:44:55;;;;;;;71.07;28.38;;;;;;;1.50;100.00;100223.44;4940574;29;20035;-80
2023/01/19 09:47:25;;;;;;;74.78;25.88;;;;;;;1.60;100.00;100235.47;4957572;28;20035;-77
2023/01/19 09:49:57;;;;;;;85.50;27.20;;;;;;;1.59;100.00;100239.13;4956828;28;20039;-78
2023/01/19 09:52:23;;;;;;;71.25;26.63;;;;;;;1.64;100.00;100256.81;4965205;28;20035;-78
2023/01/19 09:54:52;;;;;;;72.82;26.38;;;;;;;1.50;100.00;100240.47;4925462;28;20035;-78
2023/01/19 09:57:18;;;;;;;80.93;26.80;;;;;;;1.59;100.00;100256.19;4943984;28;20037;-79
2023/01/19 09:59:46;;;;;;;67.32;25.35;;;;;;;1.50;100.00;100245.88;4955165;28;20047;-78
2023/01/19 10:02:21;;;;;;;66.45;25.75;;;;;;;1.46;100.00;100252.38;4940267;29;20035;-78
2023/01/19 10:04:59;;;;;;;71.95;26.95;;;;;;;1.46;100.00;100244.31;4955933;28;20035;-79
2023/01/19 10:08:07;;;;;;;71.53;27.55;;;;;;;1.68;100.00;100262.06;4947039;28;20375;-78
2023/01/19 10:10:34;;;;;;;64.90;26.70;;;;;;;1.78;100.00;100257.94;4971591;28;20093;-79
2023/01/19 10:13:16;;;;;;;85.55;28.13;;;;;;;1.81;100.00;100258.63;4958683;28;20093;-78
2023/01/19 10:16:19;;;;;;;65.20;25.77;;;;;;;1.74;100.00;100264.44;4944802;29;20075;-78
2023/01/19 10:18:50;;;;;;;61.13;26.67;;;;;;;1.67;100.00;100263.00;4971308;28;20039;-79
2023/01/19 10:21:38;;;;;;;66.40;25.05;;;;;;;1.53;100.00;100261.91;4940438;29;20023;-77
2023/01/19 10:24:14;;;;;;;78.78;28.58;;;;;;;1.60;100.00;100263.31;4962613;28;20030;-79
2023/01/19 10:26:51;;;;;;;67.45;26.50;;;;;;;1.54;100.00;100263.66;4956371;28;20039;-79
2023/01/19 10:29:34;;;;;;;67.85;25.27;;;;;;;1.64;100.00;100264.94;4958848;28;20046;-79
2023/01/19 10:32:22;;;;;;;54.58;24.05;;;;;;;1.64;100.00;100275.72;4976070;28;20033;-79
2023/01/19 10:34:49;;;;;;;64.15;22.48;;;;;;;1.72;100.00;100278.03;4945806;28;20059;-79
2023/01/19 10:37:20;;;;;;;74.00;25.23;;;;;;;1.96;100.00;100281.25;4959464;28;20102;-79
2023/01/19 10:39:52;;;;;;;55.72;23.05;;;;;;;1.99;100.00;100275.69;4976057;28;20554;-79
2023/01/19 10:42:18;;;;;;;45.33;21.80;;;;;;;1.92;100.00;100286.88;4973798;28;20035;-79
2023/01/19 10:44:44;;;;;;;58.78;23.05;;;;;;;1.90;100.00;100272.59;4958861;28;20034;-79
2023/01/19 10:47:32;;;;;;;61.47;24.85;;;;;;;2.01;100.00;100276.47;4941293;28;20097;-79
2023/01/19 10:49:58;;;;;;;52.53;21.23;;;;;;;1.92;100.00;100270.69;4946710;29;20028;-78
2023/01/19 10:52:31;;;;;;;54.80;23.33;;;;;;;1.97;100.00;100272.22;4918910;28;20046;-79
2023/01/19 10:54:58;;;;;;;48.78;23.40;;;;;;;1.98;100.00;100273.06;4951339;29;20046;-79
2023/01/19 10:57:29;;;;;;;50.58;22.65;;;;;;;2.05;100.00;100282.59;4954769;28;20042;-79
2023/01/19 10:59:55;;;;;;;55.70;21.88;;;;;;;2.04;100.00;100278.16;4966553;28;20066;-79
2023/01/19 11:02:22;;;;;;;48.20;21.10;;;;;;;2.13;100.00;100283.06;4956347;28;20136;-78
2023/01/19 11:04:51;;;;;;;62.50;23.48;;;;;;;2.31;100.00;100269.50;4971116;28;20062;-79
2023/01/19 11:07:43;;;;;;;48.72;20.60;;;;;;;2.31;100.00;100277.63;4947217;28;20122;-78
2023/01/19 11:10:14;;;;;;;47.58;20.13;;;;;;;2.32;100.00;100282.06;4937753;28;20062;-78
2023/01/19 11:13:00;;;;;;;51.33;21.50;;;;;;;2.19;100.00;100279.16;4953814;28;20043;-78
2023/01/19 11:15:28;;;;;;;42.28;18.55;;;;;;;2.20;100.00;100286.31;4949192;28;20045;-78
2023/01/19 11:17:54;;;;;;;44.22;20.63;;;;;;;2.13;100.00;100276.78;4943527;28;20030;-77
2023/01/19 11:20:23;;;;;;;46.80;19.30;;;;;;;2.22;100.00;100280.81;4974989;28;20100;-76
2023/01/19 11:23:25;;;;;;;38.30;16.40;;;;;;;2.19;100.00;100271.91;4952083;28;20375;-78
2023/01/19 11:25:53;;;;;;;51.75;20.70;;;;;;;2.39;100.00;100272.66;4923580;28;20051;-78
2023/01/19 11:28:25;;;;;;;39.25;17.88;;;;;;;2.30;100.00;100286.69;4939073;29;20175;-77
2023/01/19 11:31:02;;;;;;;45.58;20.90;;;;;;;2.50;100.00;100272.09;4968657;28;20043;-77